sensor_id;sensor_type;location;lat;lon;timestamp;P1;durP1;ratioP1;P2;durP2;ratioP2
12780;SDS011;6454;43.304;24.344;2024-03-07T00:01:17;24.77;;;12.07;;
12780;SDS011;6454;43.304;24.344;2024-03-07T00:03:42;21.08;;;12.18;;
12780;SDS011;6454;43.304;24.344;2024-03-07T00:06:09;21.23;;;11.85;;
12780;SDS011;6454;43.304;24.344;2024-03-07T00:08:35;23.48;;;12.32;;
12780;SDS011;6454;43.304;24.344;2024-03-07T00:11:01;28.73;;;12.98;;
12780;SDS011;6454;43.304;24.344;2024-03-07T00:13:27;25.05;;;12.05;;
12780;SDS011;6454;43.304;24.344;2024-03-07T00:15:53;18.67;;;11.25;;
12780;SDS011;6454;43.304;24.344;2024-03-07T00:18:18;26.98;;;12.10;;
12780;SDS011;6454;43.304;24.344;2024-03-07T00:20:44;23.25;;;12.18;;
12780;SDS011;6454;43.304;24.344;2024-03-07T00:23:09;24.63;;;12.48;;
12780;SDS011;6454;43.304;24.344;2024-03-07T00:25:35;24.63;;;11.80;;
12780;SDS011;6454;43.304;24.344;2024-03-07T00:28:00;29.75;;;13.13;;
12780;SDS011;6454;43.304;24.344;2024-03-07T00:30:29;23.20;;;11.32;;
12780;SDS011;6454;43.304;24.344;2024-03-07T00:32:55;24.45;;;13.07;;
12780;SDS011;6454;43.304;24.344;2024-03-07T00:35:21;27.20;;;13.02;;
12780;SDS011;6454;43.304;24.344;2024-03-07T00:37:47;27.48;;;14.57;;
12780;SDS011;6454;43.304;24.344;2024-03-07T00:40:12;28.45;;;13.75;;
12780;SDS011;6454;43.304;24.344;2024-03-07T00:42:38;28.17;;;13.10;;
12780;SDS011;6454;43.304;24.344;2024-03-07T00:45:04;25.67;;;12.13;;
12780;SDS011;6454;43.304;24.344;2024-03-07T00:47:30;24.00;;;12.70;;
12780;SDS011;6454;43.304;24.344;2024-03-07T00:49:57;21.27;;;11.75;;
12780;SDS011;6454;43.304;24.344;2024-03-07T00:52:22;20.30;;;11.77;;
12780;SDS011;6454;43.304;24.344;2024-03-07T00:54:48;24.88;;;12.60;;
12780;SDS011;6454;43.304;24.344;2024-03-07T00:57:14;21.08;;;12.23;;
12780;SDS011;6454;43.304;24.344;2024-03-07T00:59:40;21.55;;;12.63;;
12780;SDS011;6454;43.304;24.344;2024-03-07T01:02:05;23.70;;;12.55;;
12780;SDS011;6454;43.304;24.344;2024-03-07T01:04:32;25.65;;;12.45;;
12780;SDS011;6454;43.304;24.344;2024-03-07T01:06:58;23.33;;;11.60;;
12780;SDS011;6454;43.304;24.344;2024-03-07T01:09:25;25.23;;;14.20;;
12780;SDS011;6454;43.304;24.344;2024-03-07T01:11:53;21.80;;;12.55;;
12780;SDS011;6454;43.304;24.344;2024-03-07T01:14:20;23.23;;;11.80;;
12780;SDS011;6454;43.304;24.344;2024-03-07T01:16:46;24.85;;;12.50;;
12780;SDS011;6454;43.304;24.344;2024-03-07T01:19:12;21.77;;;11.80;;
12780;SDS011;6454;43.304;24.344;2024-03-07T01:21:38;25.67;;;13.45;;
12780;SDS011;6454;43.304;24.344;2024-03-07T01:24:04;26.13;;;13.77;;
12780;SDS011;6454;43.304;24.344;2024-03-07T01:26:30;25.60;;;13.63;;
12780;SDS011;6454;43.304;24.344;2024-03-07T01:28:56;24.50;;;13.10;;
12780;SDS011;6454;43.304;24.344;2024-03-07T01:31:23;26.38;;;13.98;;
12780;SDS011;6454;43.304;24.344;2024-03-07T01:33:49;26.50;;;13.07;;
12780;SDS011;6454;43.304;24.344;2024-03-07T01:36:15;24.58;;;12.50;;
12780;SDS011;6454;43.304;24.344;2024-03-07T01:38:40;23.20;;;12.02;;
12780;SDS011;6454;43.304;24.344;2024-03-07T01:41:06;23.80;;;11.48;;
12780;SDS011;6454;43.304;24.344;2024-03-07T01:43:31;21.20;;;11.20;;
12780;SDS011;6454;43.304;24.344;2024-03-07T01:45:57;26.02;;;12.32;;
12780;SDS011;6454;43.304;24.344;2024-03-07T01:48:28;19.88;;;12.20;;
12780;SDS011;6454;43.304;24.344;2024-03-07T01:50:57;23.67;;;11.20;;
12780;SDS011;6454;43.304;24.344;2024-03-07T01:53:24;20.95;;;11.18;;
12780;SDS011;6454;43.304;24.344;2024-03-07T01:55:53;21.05;;;11.60;;
12780;SDS011;6454;43.304;24.344;2024-03-07T01:58:19;21.50;;;11.40;;
12780;SDS011;6454;43.304;24.344;2024-03-07T02:00:46;24.52;;;12.38;;
12780;SDS011;6454;43.304;24.344;2024-03-07T02:03:12;19.13;;;11.32;;
12780;SDS011;6454;43.304;24.344;2024-03-07T02:05:38;22.15;;;11.82;;
12780;SDS011;6454;43.304;24.344;2024-03-07T02:08:06;24.58;;;11.73;;
12780;SDS011;6454;43.304;24.344;2024-03-07T02:10:31;23.27;;;11.38;;
12780;SDS011;6454;43.304;24.344;2024-03-07T02:12:57;20.85;;;11.48;;
12780;SDS011;6454;43.304;24.344;2024-03-07T02:15:22;22.77;;;13.52;;
12780;SDS011;6454;43.304;24.344;2024-03-07T02:17:48;24.60;;;13.30;;
12780;SDS011;6454;43.304;24.344;2024-03-07T02:20:14;27.10;;;13.75;;
12780;SDS011;6454;43.304;24.344;2024-03-07T02:22:40;29.08;;;14.13;;
12780;SDS011;6454;43.304;24.344;2024-03-07T02:25:06;26.48;;;13.45;;
12780;SDS011;6454;43.304;24.344;2024-03-07T02:27:35;27.63;;;14.98;;
12780;SDS011;6454;43.304;24.344;2024-03-07T02:30:01;28.33;;;16.27;;
12780;SDS011;6454;43.304;24.344;2024-03-07T02:32:28;28.73;;;15.77;;
12780;SDS011;6454;43.304;24.344;2024-03-07T02:34:54;24.05;;;13.77;;
12780;SDS011;6454;43.304;24.344;2024-03-07T02:37:20;23.33;;;12.20;;
12780;SDS011;6454;43.304;24.344;2024-03-07T02:39:45;21.15;;;11.43;;
12780;SDS011;6454;43.304;24.344;2024-03-07T02:42:11;23.27;;;12.65;;
12780;SDS011;6454;43.304;24.344;2024-03-07T02:44:36;20.42;;;11.60;;
12780;SDS011;6454;43.304;24.344;2024-03-07T02:47:03;20.95;;;10.55;;
12780;SDS011;6454;43.304;24.344;2024-03-07T02:49:29;23.05;;;11.05;;
12780;SDS011;6454;43.304;24.344;2024-03-07T02:51:55;21.50;;;11.63;;
12780;SDS011;6454;43.304;24.344;2024-03-07T02:54:20;22.70;;;12.05;;
12780;SDS011;6454;43.304;24.344;2024-03-07T02:56:46;21.98;;;12.30;;
12780;SDS011;6454;43.304;24.344;2024-03-07T02:59:12;24.65;;;11.98;;
12780;SDS011;6454;43.304;24.344;2024-03-07T03:01:38;19.10;;;11.23;;
12780;SDS011;6454;43.304;24.344;2024-03-07T03:04:04;22.73;;;12.27;;
12780;SDS011;6454;43.304;24.344;2024-03-07T03:06:29;21.33;;;11.40;;
12780;SDS011;6454;43.304;24.344;2024-03-07T03:08:54;23.83;;;11.95;;
12780;SDS011;6454;43.304;24.344;2024-03-07T03:11:20;20.85;;;12.23;;
12780;SDS011;6454;43.304;24.344;2024-03-07T03:13:46;23.73;;;11.60;;
12780;SDS011;6454;43.304;24.344;2024-03-07T03:16:13;22.63;;;11.82;;
12780;SDS011;6454;43.304;24.344;2024-03-07T03:18:38;24.55;;;12.05;;
12780;SDS011;6454;43.304;24.344;2024-03-07T03:21:03;20.77;;;11.13;;
12780;SDS011;6454;43.304;24.344;2024-03-07T03:23:29;24.65;;;11.70;;
12780;SDS011;6454;43.304;24.344;2024-03-07T03:25:55;23.63;;;11.90;;
12780;SDS011;6454;43.304;24.344;2024-03-07T03:28:21;24.63;;;11.73;;
12780;SDS011;6454;43.304;24.344;2024-03-07T03:30:48;22.67;;;11.55;;
12780;SDS011;6454;43.304;24.344;2024-03-07T03:33:14;23.55;;;11.02;;
12780;SDS011;6454;43.304;24.344;2024-03-07T03:35:40;21.65;;;11.55;;
12780;SDS011;6454;43.304;24.344;2024-03-07T03:38:07;21.85;;;11.55;;
12780;SDS011;6454;43.304;24.344;2024-03-07T03:40:32;25.65;;;12.23;;
12780;SDS011;6454;43.304;24.344;2024-03-07T03:42:59;20.65;;;11.32;;
12780;SDS011;6454;43.304;24.344;2024-03-07T03:45:24;20.50;;;10.90;;
12780;SDS011;6454;43.304;24.344;2024-03-07T03:47:53;26.45;;;11.20;;
12780;SDS011;6454;43.304;24.344;2024-03-07T03:50:19;23.55;;;11.80;;
12780;SDS011;6454;43.304;24.344;2024-03-07T03:52:45;23.35;;;11.70;;
12780;SDS011;6454;43.304;24.344;2024-03-07T03:55:11;23.48;;;11.73;;
12780;SDS011;6454;43.304;24.344;2024-03-07T03:57:38;22.73;;;11.30;;
12780;SDS011;6454;43.304;24.344;2024-03-07T04:00:05;21.55;;;10.90;;
12780;SDS011;6454;43.304;24.344;2024-03-07T04:02:45;23.23;;;11.48;;
12780;SDS011;6454;43.304;24.344;2024-03-07T04:05:15;17.98;;;10.20;;
12780;SDS011;6454;43.304;24.344;2024-03-07T04:07:41;20.58;;;11.98;;
12780;SDS011;6454;43.304;24.344;2024-03-07T04:10:07;18.73;;;10.98;;
12780;SDS011;6454;43.304;24.344;2024-03-07T04:12:34;21.85;;;10.73;;
12780;SDS011;6454;43.304;24.344;2024-03-07T04:15:00;22.00;;;11.55;;
12780;SDS011;6454;43.304;24.344;2024-03-07T04:17:26;24.05;;;11.77;;
12780;SDS011;6454;43.304;24.344;2024-03-07T04:19:52;28.67;;;11.55;;
12780;SDS011;6454;43.304;24.344;2024-03-07T04:22:18;23.73;;;12.30;;
12780;SDS011;6454;43.304;24.344;2024-03-07T04:24:44;24.17;;;11.40;;
12780;SDS011;6454;43.304;24.344;2024-03-07T04:27:10;18.90;;;10.32;;
12780;SDS011;6454;43.304;24.344;2024-03-07T04:29:36;21.90;;;10.48;;
12780;SDS011;6454;43.304;24.344;2024-03-07T04:32:02;24.23;;;11.63;;
12780;SDS011;6454;43.304;24.344;2024-03-07T04:34:28;22.75;;;10.70;;
12780;SDS011;6454;43.304;24.344;2024-03-07T04:36:56;25.83;;;11.30;;
12780;SDS011;6454;43.304;24.344;2024-03-07T04:39:24;19.20;;;10.52;;
12780;SDS011;6454;43.304;24.344;2024-03-07T04:41:53;28.42;;;14.38;;
12780;SDS011;6454;43.304;24.344;2024-03-07T04:44:19;23.88;;;11.98;;
12780;SDS011;6454;43.304;24.344;2024-03-07T04:46:49;23.33;;;11.82;;
12780;SDS011;6454;43.304;24.344;2024-03-07T04:49:21;24.95;;;12.75;;
12780;SDS011;6454;43.304;24.344;2024-03-07T04:51:48;23.75;;;11.07;;
12780;SDS011;6454;43.304;24.344;2024-03-07T04:54:14;22.15;;;12.63;;
12780;SDS011;6454;43.304;24.344;2024-03-07T04:56:40;22.90;;;11.80;;
12780;SDS011;6454;43.304;24.344;2024-03-07T04:59:07;22.25;;;10.68;;
12780;SDS011;6454;43.304;24.344;2024-03-07T05:01:32;24.50;;;12.32;;
12780;SDS011;6454;43.304;24.344;2024-03-07T05:03:58;25.38;;;12.73;;
12780;SDS011;6454;43.304;24.344;2024-03-07T05:06:23;27.63;;;12.88;;
12780;SDS011;6454;43.304;24.344;2024-03-07T05:08:48;28.33;;;13.45;;
12780;SDS011;6454;43.304;24.344;2024-03-07T05:11:14;22.02;;;12.82;;
12780;SDS011;6454;43.304;24.344;2024-03-07T05:13:40;33.00;;;15.27;;
12780;SDS011;6454;43.304;24.344;2024-03-07T05:16:07;23.88;;;12.50;;
12780;SDS011;6454;43.304;24.344;2024-03-07T05:18:33;23.95;;;12.02;;
12780;SDS011;6454;43.304;24.344;2024-03-07T05:20:59;20.60;;;11.68;;
12780;SDS011;6454;43.304;24.344;2024-03-07T05:23:44;22.73;;;11.95;;
12780;SDS011;6454;43.304;24.344;2024-03-07T05:26:10;30.83;;;15.55;;
12780;SDS011;6454;43.304;24.344;2024-03-07T05:28:35;35.35;;;18.23;;
12780;SDS011;6454;43.304;24.344;2024-03-07T05:31:01;27.73;;;12.82;;
12780;SDS011;6454;43.304;24.344;2024-03-07T05:33:29;23.17;;;13.63;;
12780;SDS011;6454;43.304;24.344;2024-03-07T05:35:54;25.33;;;13.07;;
12780;SDS011;6454;43.304;24.344;2024-03-07T05:38:38;25.35;;;11.73;;
12780;SDS011;6454;43.304;24.344;2024-03-07T05:41:04;23.88;;;11.90;;
12780;SDS011;6454;43.304;24.344;2024-03-07T05:43:30;24.75;;;13.18;;
12780;SDS011;6454;43.304;24.344;2024-03-07T05:45:57;21.02;;;11.32;;
12780;SDS011;6454;43.304;24.344;2024-03-07T05:48:25;22.67;;;11.98;;
12780;SDS011;6454;43.304;24.344;2024-03-07T05:50:51;28.20;;;14.02;;
12780;SDS011;6454;43.304;24.344;2024-03-07T05:53:17;31.20;;;14.45;;
12780;SDS011;6454;43.304;24.344;2024-03-07T05:55:43;25.52;;;13.68;;
12780;SDS011;6454;43.304;24.344;2024-03-07T05:58:08;25.38;;;13.05;;
12780;SDS011;6454;43.304;24.344;2024-03-07T06:00:35;23.67;;;12.05;;
12780;SDS011;6454;43.304;24.344;2024-03-07T06:03:03;27.05;;;13.18;;
12780;SDS011;6454;43.304;24.344;2024-03-07T06:05:30;26.58;;;14.60;;
12780;SDS011;6454;43.304;24.344;2024-03-07T06:07:56;26.67;;;13.88;;
12780;SDS011;6454;43.304;24.344;2024-03-07T06:10:21;28.50;;;12.75;;
12780;SDS011;6454;43.304;24.344;2024-03-07T06:12:50;24.83;;;13.30;;
12780;SDS011;6454;43.304;24.344;2024-03-07T06:15:15;29.42;;;13.10;;
12780;SDS011;6454;43.304;24.344;2024-03-07T06:17:42;25.60;;;13.00;;
12780;SDS011;6454;43.304;24.344;2024-03-07T06:20:11;24.65;;;12.50;;
12780;SDS011;6454;43.304;24.344;2024-03-07T06:22:48;27.20;;;12.45;;
12780;SDS011;6454;43.304;24.344;2024-03-07T06:25:24;28.17;;;11.57;;
12780;SDS011;6454;43.304;24.344;2024-03-07T06:28:01;21.42;;;12.07;;
12780;SDS011;6454;43.304;24.344;2024-03-07T06:30:37;24.27;;;12.35;;
12780;SDS011;6454;43.304;24.344;2024-03-07T06:33:04;22.63;;;12.18;;
12780;SDS011;6454;43.304;24.344;2024-03-07T06:35:30;23.08;;;11.48;;
12780;SDS011;6454;43.304;24.344;2024-03-07T06:37:56;21.40;;;12.00;;
12780;SDS011;6454;43.304;24.344;2024-03-07T06:40:21;22.45;;;12.20;;
12780;SDS011;6454;43.304;24.344;2024-03-07T06:42:47;24.63;;;13.27;;
12780;SDS011;6454;43.304;24.344;2024-03-07T06:45:17;21.48;;;12.20;;
12780;SDS011;6454;43.304;24.344;2024-03-07T06:47:43;26.60;;;13.00;;
12780;SDS011;6454;43.304;24.344;2024-03-07T06:50:09;25.15;;;12.32;;
12780;SDS011;6454;43.304;24.344;2024-03-07T06:52:35;27.08;;;13.18;;
12780;SDS011;6454;43.304;24.344;2024-03-07T06:55:03;29.25;;;12.82;;
12780;SDS011;6454;43.304;24.344;2024-03-07T06:57:32;26.50;;;13.13;;
12780;SDS011;6454;43.304;24.344;2024-03-07T06:59:59;32.35;;;15.48;;
12780;SDS011;6454;43.304;24.344;2024-03-07T07:02:24;30.35;;;15.63;;
12780;SDS011;6454;43.304;24.344;2024-03-07T07:04:52;23.52;;;13.20;;
12780;SDS011;6454;43.304;24.344;2024-03-07T07:07:18;24.58;;;12.52;;
12780;SDS011;6454;43.304;24.344;2024-03-07T07:09:45;28.25;;;14.77;;
12780;SDS011;6454;43.304;24.344;2024-03-07T07:12:10;24.70;;;13.25;;
12780;SDS011;6454;43.304;24.344;2024-03-07T07:14:36;27.08;;;13.77;;
12780;SDS011;6454;43.304;24.344;2024-03-07T07:17:01;29.20;;;14.38;;
12780;SDS011;6454;43.304;24.344;2024-03-07T07:19:27;28.17;;;14.02;;
12780;SDS011;6454;43.304;24.344;2024-03-07T07:21:52;27.65;;;14.00;;
12780;SDS011;6454;43.304;24.344;2024-03-07T07:24:22;26.17;;;13.32;;
12780;SDS011;6454;43.304;24.344;2024-03-07T07:26:49;23.83;;;11.45;;
12780;SDS011;6454;43.304;24.344;2024-03-07T07:29:17;24.48;;;11.35;;
12780;SDS011;6454;43.304;24.344;2024-03-07T07:31:43;23.67;;;11.98;;
12780;SDS011;6454;43.304;24.344;2024-03-07T07:34:10;26.85;;;11.68;;
12780;SDS011;6454;43.304;24.344;2024-03-07T07:36:36;22.13;;;11.73;;
12780;SDS011;6454;43.304;24.344;2024-03-07T07:39:01;24.13;;;12.95;;
12780;SDS011;6454;43.304;24.344;2024-03-07T07:41:28;25.48;;;11.98;;
12780;SDS011;6454;43.304;24.344;2024-03-07T07:43:53;20.73;;;10.82;;
12780;SDS011;6454;43.304;24.344;2024-03-07T07:46:19;27.75;;;12.05;;
12780;SDS011;6454;43.304;24.344;2024-03-07T07:48:45;24.70;;;11.43;;
12780;SDS011;6454;43.304;24.344;2024-03-07T07:51:10;27.52;;;12.70;;
12780;SDS011;6454;43.304;24.344;2024-03-07T07:53:36;25.90;;;12.48;;
12780;SDS011;6454;43.304;24.344;2024-03-07T07:56:01;27.80;;;12.75;;
12780;SDS011;6454;43.304;24.344;2024-03-07T07:58:27;23.33;;;11.88;;
12780;SDS011;6454;43.304;24.344;2024-03-07T08:00:52;23.77;;;11.82;;
12780;SDS011;6454;43.304;24.344;2024-03-07T08:03:18;23.25;;;11.68;;
12780;SDS011;6454;43.304;24.344;2024-03-07T08:05:43;22.83;;;11.63;;
12780;SDS011;6454;43.304;24.344;2024-03-07T08:08:12;27.73;;;12.35;;
12780;SDS011;6454;43.304;24.344;2024-03-07T08:10:41;24.40;;;11.50;;
12780;SDS011;6454;43.304;24.344;2024-03-07T08:13:10;23.40;;;12.00;;
12780;SDS011;6454;43.304;24.344;2024-03-07T08:15:38;20.67;;;11.43;;
12780;SDS011;6454;43.304;24.344;2024-03-07T08:18:04;23.05;;;11.43;;
12780;SDS011;6454;43.304;24.344;2024-03-07T08:20:36;22.95;;;11.70;;
12780;SDS011;6454;43.304;24.344;2024-03-07T08:23:02;25.77;;;13.38;;
12780;SDS011;6454;43.304;24.344;2024-03-07T08:25:28;30.30;;;13.90;;
12780;SDS011;6454;43.304;24.344;2024-03-07T08:27:54;27.80;;;13.65;;
12780;SDS011;6454;43.304;24.344;2024-03-07T08:30:23;27.88;;;13.68;;
12780;SDS011;6454;43.304;24.344;2024-03-07T08:32:50;24.70;;;13.07;;
12780;SDS011;6454;43.304;24.344;2024-03-07T08:35:17;25.42;;;12.85;;
12780;SDS011;6454;43.304;24.344;2024-03-07T08:37:44;30.38;;;13.98;;
12780;SDS011;6454;43.304;24.344;2024-03-07T08:40:11;24.75;;;11.75;;
12780;SDS011;6454;43.304;24.344;2024-03-07T08:42:44;24.73;;;13.75;;
12780;SDS011;6454;43.304;24.344;2024-03-07T08:45:11;31.48;;;15.10;;
12780;SDS011;6454;43.304;24.344;2024-03-07T08:47:42;26.50;;;12.77;;
12780;SDS011;6454;43.304;24.344;2024-03-07T08:50:08;31.38;;;14.80;;
12780;SDS011;6454;43.304;24.344;2024-03-07T08:52:34;28.88;;;14.30;;
12780;SDS011;6454;43.304;24.344;2024-03-07T08:55:05;33.95;;;17.23;;
12780;SDS011;6454;43.304;24.344;2024-03-07T08:57:31;27.17;;;13.95;;
12780;SDS011;6454;43.304;24.344;2024-03-07T08:59:57;33.83;;;15.93;;
12780;SDS011;6454;43.304;24.344;2024-03-07T09:02:23;36.00;;;16.25;;
12780;SDS011;6454;43.304;24.344;2024-03-07T09:04:48;44.70;;;20.23;;
12780;SDS011;6454;43.304;24.344;2024-03-07T09:07:14;32.25;;;16.25;;
12780;SDS011;6454;43.304;24.344;2024-03-07T09:09:40;41.70;;;18.92;;
12780;SDS011;6454;43.304;24.344;2024-03-07T09:12:08;28.55;;;13.55;;
12780;SDS011;6454;43.304;24.344;2024-03-07T09:14:34;31.17;;;14.88;;
12780;SDS011;6454;43.304;24.344;2024-03-07T09:17:00;40.42;;;20.38;;
12780;SDS011;6454;43.304;24.344;2024-03-07T09:19:26;33.05;;;15.60;;
12780;SDS011;6454;43.304;24.344;2024-03-07T09:21:53;32.50;;;16.10;;
12780;SDS011;6454;43.304;24.344;2024-03-07T09:24:19;31.50;;;16.23;;
12780;SDS011;6454;43.304;24.344;2024-03-07T09:26:49;28.05;;;14.77;;
12780;SDS011;6454;43.304;24.344;2024-03-07T09:29:15;24.45;;;12.75;;
12780;SDS011;6454;43.304;24.344;2024-03-07T09:31:41;28.13;;;11.73;;
12780;SDS011;6454;43.304;24.344;2024-03-07T09:34:06;20.60;;;12.20;;
12780;SDS011;6454;43.304;24.344;2024-03-07T09:36:33;25.05;;;12.07;;
12780;SDS011;6454;43.304;24.344;2024-03-07T09:38:59;24.45;;;12.13;;
12780;SDS011;6454;43.304;24.344;2024-03-07T09:41:24;24.33;;;11.73;;
12780;SDS011;6454;43.304;24.344;2024-03-07T09:43:53;33.30;;;17.20;;
12780;SDS011;6454;43.304;24.344;2024-03-07T09:46:21;40.03;;;18.67;;
12780;SDS011;6454;43.304;24.344;2024-03-07T09:48:49;31.95;;;15.15;;
12780;SDS011;6454;43.304;24.344;2024-03-07T09:51:18;23.75;;;12.85;;
12780;SDS011;6454;43.304;24.344;2024-03-07T09:53:49;21.13;;;11.38;;
12780;SDS011;6454;43.304;24.344;2024-03-07T09:56:21;25.70;;;14.18;;
12780;SDS011;6454;43.304;24.344;2024-03-07T09:58:51;18.63;;;10.60;;
12780;SDS011;6454;43.304;24.344;2024-03-07T10:01:22;25.10;;;12.93;;
12780;SDS011;6454;43.304;24.344;2024-03-07T10:03:53;22.25;;;11.23;;
12780;SDS011;6454;43.304;24.344;2024-03-07T10:06:23;21.02;;;10.45;;
12780;SDS011;6454;43.304;24.344;2024-03-07T10:08:52;23.23;;;12.15;;
12780;SDS011;6454;43.304;24.344;2024-03-07T10:11:18;23.95;;;11.35;;
12780;SDS011;6454;43.304;24.344;2024-03-07T10:13:43;23.15;;;11.93;;
12780;SDS011;6454;43.304;24.344;2024-03-07T10:16:11;27.52;;;13.18;;
12780;SDS011;6454;43.304;24.344;2024-03-07T10:18:43;24.00;;;13.43;;
12780;SDS011;6454;43.304;24.344;2024-03-07T10:21:12;24.88;;;13.15;;
12780;SDS011;6454;43.304;24.344;2024-03-07T10:23:38;25.23;;;12.77;;
12780;SDS011;6454;43.304;24.344;2024-03-07T10:26:06;20.23;;;10.88;;
12780;SDS011;6454;43.304;24.344;2024-03-07T10:28:31;20.73;;;10.57;;
12780;SDS011;6454;43.304;24.344;2024-03-07T10:30:58;20.15;;;11.23;;
12780;SDS011;6454;43.304;24.344;2024-03-07T10:33:27;22.10;;;11.82;;
12780;SDS011;6454;43.304;24.344;2024-03-07T10:35:53;23.95;;;12.25;;
12780;SDS011;6454;43.304;24.344;2024-03-07T10:38:18;23.05;;;12.85;;
12780;SDS011;6454;43.304;24.344;2024-03-07T10:40:47;26.00;;;11.60;;
12780;SDS011;6454;43.304;24.344;2024-03-07T10:43:18;21.10;;;11.15;;
12780;SDS011;6454;43.304;24.344;2024-03-07T10:45:46;25.40;;;11.85;;
12780;SDS011;6454;43.304;24.344;2024-03-07T10:48:13;22.20;;;10.70;;
12780;SDS011;6454;43.304;24.344;2024-03-07T10:53:31;21.85;;;11.23;;
12780;SDS011;6454;43.304;24.344;2024-03-07T11:01:39;22.20;;;11.95;;
12780;SDS011;6454;43.304;24.344;2024-03-07T11:04:08;20.75;;;11.07;;
12780;SDS011;6454;43.304;24.344;2024-03-07T11:06:34;22.20;;;11.45;;
12780;SDS011;6454;43.304;24.344;2024-03-07T11:09:02;22.35;;;12.15;;
12780;SDS011;6454;43.304;24.344;2024-03-07T11:11:38;26.33;;;13.02;;
12780;SDS011;6454;43.304;24.344;2024-03-07T11:14:05;22.25;;;11.85;;
12780;SDS011;6454;43.304;24.344;2024-03-07T11:16:36;23.27;;;11.82;;
12780;SDS011;6454;43.304;24.344;2024-03-07T11:19:19;22.15;;;11.38;;
12780;SDS011;6454;43.304;24.344;2024-03-07T11:21:51;21.15;;;11.10;;
12780;SDS011;6454;43.304;24.344;2024-03-07T11:24:29;25.20;;;11.85;;
12780;SDS011;6454;43.304;24.344;2024-03-07T11:26:58;27.55;;;12.93;;
12780;SDS011;6454;43.304;24.344;2024-03-07T11:32:15;21.75;;;11.77;;
12780;SDS011;6454;43.304;24.344;2024-03-07T11:34:44;25.08;;;12.23;;
12780;SDS011;6454;43.304;24.344;2024-03-07T11:37:16;23.65;;;12.40;;
12780;SDS011;6454;43.304;24.344;2024-03-07T11:39:43;26.77;;;13.48;;
12780;SDS011;6454;43.304;24.344;2024-03-07T11:42:25;26.30;;;12.77;;
12780;SDS011;6454;43.304;24.344;2024-03-07T11:44:51;27.17;;;13.18;;
12780;SDS011;6454;43.304;24.344;2024-03-07T11:47:21;28.63;;;14.98;;
12780;SDS011;6454;43.304;24.344;2024-03-07T11:49:50;29.65;;;14.68;;
12780;SDS011;6454;43.304;24.344;2024-03-07T11:52:17;26.63;;;13.82;;
12780;SDS011;6454;43.304;24.344;2024-03-07T11:54:46;24.40;;;12.20;;
12780;SDS011;6454;43.304;24.344;2024-03-07T11:57:15;24.88;;;13.32;;
12780;SDS011;6454;43.304;24.344;2024-03-07T11:59:41;26.02;;;13.13;;
12780;SDS011;6454;43.304;24.344;2024-03-07T12:02:14;27.58;;;12.63;;
12780;SDS011;6454;43.304;24.344;2024-03-07T12:04:43;26.05;;;12.85;;
12780;SDS011;6454;43.304;24.344;2024-03-07T12:07:09;24.83;;;13.10;;
12780;SDS011;6454;43.304;24.344;2024-03-07T12:09:38;28.63;;;14.00;;
12780;SDS011;6454;43.304;24.344;2024-03-07T12:12:04;30.08;;;14.27;;
12780;SDS011;6454;43.304;24.344;2024-03-07T12:14:31;27.67;;;14.50;;
12780;SDS011;6454;43.304;24.344;2024-03-07T12:16:56;23.85;;;12.98;;
12780;SDS011;6454;43.304;24.344;2024-03-07T12:19:23;27.48;;;13.55;;
12780;SDS011;6454;43.304;24.344;2024-03-07T12:21:49;28.05;;;13.50;;
12780;SDS011;6454;43.304;24.344;2024-03-07T12:24:14;26.70;;;13.25;;
12780;SDS011;6454;43.304;24.344;2024-03-07T12:26:40;26.05;;;13.05;;
12780;SDS011;6454;43.304;24.344;2024-03-07T12:29:11;27.52;;;13.40;;
12780;SDS011;6454;43.304;24.344;2024-03-07T12:31:37;26.42;;;13.68;;
12780;SDS011;6454;43.304;24.344;2024-03-07T12:34:04;24.45;;;13.63;;
12780;SDS011;6454;43.304;24.344;2024-03-07T12:36:30;27.23;;;13.18;;
12780;SDS011;6454;43.304;24.344;2024-03-07T12:39:00;24.30;;;13.00;;
12780;SDS011;6454;43.304;24.344;2024-03-07T12:41:49;25.95;;;13.23;;
12780;SDS011;6454;43.304;24.344;2024-03-07T12:44:18;23.20;;;13.00;;
12780;SDS011;6454;43.304;24.344;2024-03-07T12:46:53;21.77;;;13.27;;
12780;SDS011;6454;43.304;24.344;2024-03-07T12:49:24;26.83;;;13.27;;
12780;SDS011;6454;43.304;24.344;2024-03-07T12:51:55;29.05;;;13.48;;
12780;SDS011;6454;43.304;24.344;2024-03-07T12:54:24;36.00;;;16.13;;
12780;SDS011;6454;43.304;24.344;2024-03-07T12:56:50;29.70;;;14.40;;
12780;SDS011;6454;43.304;24.344;2024-03-07T12:59:15;24.17;;;13.10;;
12780;SDS011;6454;43.304;24.344;2024-03-07T13:01:42;23.30;;;11.90;;
12780;SDS011;6454;43.304;24.344;2024-03-07T13:04:10;22.20;;;12.68;;
12780;SDS011;6454;43.304;24.344;2024-03-07T13:06:36;25.05;;;13.27;;
12780;SDS011;6454;43.304;24.344;2024-03-07T13:09:02;24.90;;;13.40;;
12780;SDS011;6454;43.304;24.344;2024-03-07T13:11:28;29.75;;;14.25;;
12780;SDS011;6454;43.304;24.344;2024-03-07T13:13:57;25.70;;;13.10;;
12780;SDS011;6454;43.304;24.344;2024-03-07T13:16:23;26.15;;;13.88;;
12780;SDS011;6454;43.304;24.344;2024-03-07T13:18:55;27.23;;;13.63;;
12780;SDS011;6454;43.304;24.344;2024-03-07T13:21:21;24.20;;;13.98;;
12780;SDS011;6454;43.304;24.344;2024-03-07T13:23:47;27.88;;;14.43;;
12780;SDS011;6454;43.304;24.344;2024-03-07T13:26:12;27.65;;;13.48;;
12780;SDS011;6454;43.304;24.344;2024-03-07T13:28:45;25.38;;;12.57;;
12780;SDS011;6454;43.304;24.344;2024-03-07T13:31:12;26.92;;;12.73;;
12780;SDS011;6454;43.304;24.344;2024-03-07T13:33:37;26.98;;;14.43;;
12780;SDS011;6454;43.304;24.344;2024-03-07T13:36:03;27.10;;;15.38;;
12780;SDS011;6454;43.304;24.344;2024-03-07T13:38:29;26.10;;;13.93;;
12780;SDS011;6454;43.304;24.344;2024-03-07T13:40:55;22.98;;;13.57;;
12780;SDS011;6454;43.304;24.344;2024-03-07T13:43:22;22.42;;;12.45;;
12780;SDS011;6454;43.304;24.344;2024-03-07T13:45:48;22.33;;;11.52;;
12780;SDS011;6454;43.304;24.344;2024-03-07T13:48:13;21.75;;;11.93;;
12780;SDS011;6454;43.304;24.344;2024-03-07T13:50:41;20.50;;;12.15;;
12780;SDS011;6454;43.304;24.344;2024-03-07T13:53:09;21.40;;;11.77;;
12780;SDS011;6454;43.304;24.344;2024-03-07T13:55:46;20.52;;;11.18;;
12780;SDS011;6454;43.304;24.344;2024-03-07T13:58:34;17.95;;;9.50;;
12780;SDS011;6454;43.304;24.344;2024-03-07T14:06:42;15.30;;;9.35;;
12780;SDS011;6454;43.304;24.344;2024-03-07T14:18:36;15.15;;;9.63;;
12780;SDS011;6454;43.304;24.344;2024-03-07T14:31:56;21.77;;;12.70;;
12780;SDS011;6454;43.304;24.344;2024-03-07T14:37:09;18.85;;;11.20;;
12780;SDS011;6454;43.304;24.344;2024-03-07T14:39:42;22.17;;;11.63;;
12780;SDS011;6454;43.304;24.344;2024-03-07T14:42:09;22.88;;;11.93;;
12780;SDS011;6454;43.304;24.344;2024-03-07T14:44:39;25.35;;;12.38;;
12780;SDS011;6454;43.304;24.344;2024-03-07T14:47:11;27.52;;;13.93;;
12780;SDS011;6454;43.304;24.344;2024-03-07T14:49:37;31.83;;;16.67;;
12780;SDS011;6454;43.304;24.344;2024-03-07T14:52:03;23.67;;;14.15;;
12780;SDS011;6454;43.304;24.344;2024-03-07T14:57:01;26.40;;;14.88;;
12780;SDS011;6454;43.304;24.344;2024-03-07T14:59:29;28.63;;;14.63;;
12780;SDS011;6454;43.304;24.344;2024-03-07T15:01:55;22.75;;;13.40;;
12780;SDS011;6454;43.304;24.344;2024-03-07T15:04:20;24.17;;;13.27;;